Brighton, MI

10:09 AM EDT on August 27, 2016 (GMT -0400)
Lake of the Pines - Proper Install | | Change Station

Elev 938 ft 42.53 °N, 83.74 °W | Updated 2 seconds ago

Mostly Cloudy
Mostly Cloudy
75.6 °F
Feels Like 77 °F
N
0.2
Wind Variable Wind from SSE
Gusts 2.5 mph

Today
High -- | Low -- °F
--% Chance of Precip.
Yesterday
High -- | Low -- °F
Precip. -- in
Pressure 30.16 in
Visibility 10.0 miles
Clouds Scattered Clouds 7000 ft
Mostly Cloudy 9500 ft
Mostly Cloudy 12000 ft
Heat Index 77 °F
Dew Point 67 °F
Humidity 74%
Rainfall 0.00 in
Snow Depth Not available.
6:55 AM 8:16 PM
Waning Crescent, 24% visible
METAR KOZW 271355Z AUTO 14009KT 10SM SCT070 BKN095 BKN120 23/20 A3016 RMK AO2 T02320201
Pressure 30.16 in
Visibility 10.0 miles
Clouds Scattered Clouds 7000 ft
Mostly Cloudy 9500 ft
Mostly Cloudy 12000 ft
Heat Index 77 °F
Dew Point 67 °F
Humidity 74%
Rainfall 0.00 in
Snow Depth Not available.
6:55 AM 8:16 PM
Waning Crescent, 24% visible
METAR KOZW 271355Z AUTO 14009KT 10SM SCT070 BKN095 BKN120 23/20 A3016 RMK AO2 T02320201

10-Day Weather Forecast

Almanac

Astronomy

Aug. 27, 2016 Rise Set
Actual Time
Civil Twilight
Nautical Twilight
Astronomical Twilight
Moon
Length of Visible Light
Length of Day
Tomorrow will be .
, % of the Moon is Illuminated

Today's Extremes

State Highs State Lows

Community

WunderPhotos

Upload Photos

1,935,340 photos uploaded!

WunderBlog® & News

Nearby

Air Quality

  Air Quality AQ Index Pollutant
Not available.

Snow Depth

Station Depth Elevation

Earthquake Activity

City Distance Mag. Time & Date
Minimum magnitude displayed is 2.5.

Coastal Water Temperatures

Place Temperature

Stations

Nearby Weather Stations

Station Location Temp. Windchill Dew Point Humidity Wind Precip. Elev Updated Type
                   

Watches & Warnings

There are currently no watches in effect.